createdAt,value
2022-10-29T00:00:01.617Z,100467.34
2022-10-29T00:02:37.360Z,100461.28
2022-10-29T00:05:06.849Z,100463.16
2022-10-29T00:07:35.586Z,100456.97
2022-10-29T00:12:50.764Z,100461.28
2022-10-29T00:15:21.197Z,100453.47
2022-10-29T00:17:50.226Z,100444.75
2022-10-29T00:20:21.215Z,100444.69
2022-10-29T00:25:36.566Z,100444.69
2022-10-29T00:28:05.565Z,100447.09
2022-10-29T00:30:38.479Z,100445.16
2022-10-29T00:33:07.226Z,100447.72
2022-10-29T00:35:36.115Z,100439.72
2022-10-29T00:38:05.095Z,100433.53
2022-10-29T00:40:38.192Z,100435.78
2022-10-29T00:43:14.371Z,100427.06
2022-10-29T00:45:49.392Z,100434.66
2022-10-29T00:48:18.324Z,100431.16
2022-10-29T00:50:48.894Z,100429.41
2022-10-29T00:53:22.615Z,100432.03
2022-10-29T00:55:52.214Z,100426.84
2022-10-29T00:58:22.135Z,100426.00
2022-10-29T01:00:52.445Z,100425.06
2022-10-29T01:03:21.210Z,100421.81
2022-10-29T01:05:50.590Z,100425.50
2022-10-29T01:08:23.444Z,100414.19
2022-10-29T01:14:09.941Z,100419.09
2022-10-29T01:16:48.421Z,100413.31
2022-10-29T01:22:36.240Z,100409.47
2022-10-29T01:25:36.172Z,100405.50
2022-10-29T01:28:17.542Z,100403.13
2022-10-29T01:31:21.865Z,100398.13
2022-10-29T01:36:52.170Z,100402.75
2022-10-29T01:39:27.573Z,100398.50
2022-10-29T01:42:05.358Z,100395.25
2022-10-29T01:44:39.573Z,100396.28
2022-10-29T01:47:15.391Z,100396.56
2022-10-29T01:49:50.081Z,100391.66
2022-10-29T01:55:09.069Z,100385.16
2022-10-29T01:57:39.455Z,100385.28
2022-10-29T02:06:09.120Z,100391.72
2022-10-29T02:08:48.055Z,100395.13
2022-10-29T02:11:22.574Z,100385.72
2022-10-29T02:13:56.132Z,100382.44
2022-10-29T02:16:30.295Z,100379.81
2022-10-29T02:18:59.308Z,100388.56
2022-10-29T02:21:32.766Z,100379.88
2022-10-29T02:26:47.338Z,100380.16
2022-10-29T02:29:15.989Z,100372.31
2022-10-29T02:31:45.017Z,100375.16
2022-10-29T02:34:14.016Z,100371.72
2022-10-29T02:36:44.164Z,100370.75
2022-10-29T02:39:12.717Z,100376.59
2022-10-29T02:41:41.411Z,100371.22
2022-10-29T02:44:10.336Z,100375.69
2022-10-29T02:46:42.180Z,100366.47
2022-10-29T02:49:11.760Z,100363.06
2022-10-29T02:51:40.879Z,100369.25
2022-10-29T02:54:11.255Z,100359.78
2022-10-29T02:56:40.020Z,100356.38
2022-10-29T02:59:11.713Z,100360.03
2022-10-29T03:01:41.119Z,100353.22
2022-10-29T03:04:12.661Z,100353.34
2022-10-29T03:06:41.533Z,100336.94
2022-10-29T03:09:11.765Z,100335.09
2022-10-29T03:14:26.792Z,100341.16
2022-10-29T03:16:55.393Z,100328.75
2022-10-29T03:19:24.352Z,100328.53
2022-10-29T03:24:40.587Z,100328.41
2022-10-29T03:27:09.184Z,100326.66
2022-10-29T03:29:38.009Z,100331.84
2022-10-29T03:32:07.428Z,100326.50
2022-10-29T03:34:36.972Z,100324.75
2022-10-29T03:37:05.720Z,100328.31
2022-10-29T03:39:37.336Z,100330.94
2022-10-29T03:42:09.520Z,100329.06
2022-10-29T03:44:38.650Z,100323.75
2022-10-29T03:47:09.454Z,100321.94
2022-10-29T03:52:24.404Z,100322.44
2022-10-29T03:54:53.163Z,100311.78
2022-10-29T03:57:23.313Z,100313.53
2022-10-29T03:59:52.822Z,100309.09
2022-10-29T04:02:21.804Z,100315.88
2022-10-29T04:04:51.118Z,100323.75
2022-10-29T04:07:20.720Z,100322.88
2022-10-29T04:09:49.552Z,100324.75
2022-10-29T04:12:18.949Z,100315.03
2022-10-29T04:17:17.708Z,100314.41
2022-10-29T04:19:46.452Z,100318.84
2022-10-29T04:28:41.745Z,100334.47
2022-10-29T04:33:26.333Z,100326.84
2022-10-29T04:35:55.748Z,100322.19
2022-10-29T04:38:24.470Z,100327.22
2022-10-29T04:40:54.707Z,100333.00
2022-10-29T04:46:13.705Z,100320.75
2022-10-29T04:48:42.547Z,100320.34
2022-10-29T04:51:21.130Z,100321.56
2022-10-29T04:53:50.142Z,100318.59
2022-10-29T04:56:19.554Z,100313.06
2022-10-29T04:58:48.347Z,100302.25
2022-10-29T05:04:04.448Z,100299.06
2022-10-29T05:06:34.320Z,100310.22
2022-10-29T05:09:03.284Z,100304.94
2022-10-29T05:11:32.245Z,100310.84
2022-10-29T05:14:01.110Z,100315.03
2022-10-29T05:16:31.091Z,100313.97
2022-10-29T05:18:59.898Z,100309.47
2022-10-29T05:21:28.552Z,100301.50
2022-10-29T05:23:57.151Z,100304.91
2022-10-29T05:26:26.132Z,100295.38
2022-10-29T05:28:56.970Z,100293.53
2022-10-29T05:31:25.969Z,100303.13
2022-10-29T05:33:56.529Z,100311.56
2022-10-29T05:36:25.168Z,100301.81
2022-10-29T05:41:39.915Z,100302.63
2022-10-29T05:44:08.787Z,100315.69
2022-10-29T05:46:38.196Z,100324.28
2022-10-29T05:49:12.391Z,100329.16
2022-10-29T05:51:42.520Z,100334.13
2022-10-29T05:54:12.280Z,100337.38
2022-10-29T05:56:41.163Z,100334.59
2022-10-29T05:59:10.169Z,100342.19
2022-10-29T06:01:39.243Z,100334.91
2022-10-29T06:04:08.189Z,100345.31
2022-10-29T06:06:39.276Z,100350.19
2022-10-29T06:09:08.468Z,100346.28
2022-10-29T06:11:37.404Z,100346.72
2022-10-29T06:16:53.271Z,100357.59
2022-10-29T06:22:10.883Z,100342.38
2022-10-29T06:24:42.731Z,100357.09
2022-10-29T06:27:12.472Z,100353.53
2022-10-29T06:32:30.938Z,100350.56
2022-10-29T06:34:59.665Z,100361.72
2022-10-29T06:40:20.137Z,100356.47
2022-10-29T06:42:49.160Z,100361.72
2022-10-29T06:45:18.395Z,100356.47
2022-10-29T06:47:47.343Z,100355.69
2022-10-29T06:53:04.962Z,100367.00
2022-10-29T06:55:34.316Z,100352.91
2022-10-29T07:03:37.220Z,100362.66
2022-10-29T07:06:06.359Z,100364.88
2022-10-29T07:08:36.726Z,100372.28
2022-10-29T07:11:07.612Z,100363.81
2022-10-29T07:13:36.387Z,100372.19
2022-10-29T07:16:08.527Z,100375.81
2022-10-29T07:18:37.687Z,100370.16
2022-10-29T07:21:07.622Z,100368.78
2022-10-29T07:23:38.236Z,100363.88
2022-10-29T07:26:07.745Z,100369.59
2022-10-29T07:28:36.645Z,100367.47
2022-10-29T07:31:05.558Z,100375.03
2022-10-29T07:33:36.600Z,100371.13
2022-10-29T07:38:53.211Z,100367.25
2022-10-29T07:44:09.740Z,100374.97
2022-10-29T07:49:27.745Z,100372.34
2022-10-29T07:51:56.948Z,100377.19
2022-10-29T07:54:27.420Z,100378.47
2022-10-29T07:56:56.615Z,100378.09
2022-10-29T07:59:27.574Z,100381.34
2022-10-29T08:04:43.268Z,100374.47
2022-10-29T08:07:12.344Z,100372.00
2022-10-29T08:09:45.682Z,100372.31
2022-10-29T08:15:01.249Z,100374.38
2022-10-29T08:17:31.176Z,100372.75
2022-10-29T08:20:00.218Z,100374.09
2022-10-29T08:22:32.656Z,100376.50
2022-10-29T08:25:03.996Z,100374.66
2022-10-29T08:30:19.672Z,100364.25
2022-10-29T08:32:49.236Z,100372.75
2022-10-29T08:38:06.096Z,100372.19
2022-10-29T08:40:48.646Z,100366.38
2022-10-29T08:43:49.249Z,100350.13
2022-10-29T08:49:18.944Z,100354.00
2022-10-29T08:54:43.687Z,100361.53
2022-10-29T08:57:21.395Z,100366.91
2022-10-29T09:00:04.579Z,100361.28
2022-10-29T09:02:33.870Z,100357.13
2022-10-29T09:05:04.602Z,100355.00
2022-10-29T09:07:48.826Z,100367.75
2022-10-29T09:10:31.510Z,100361.06
2022-10-29T09:13:39.865Z,100365.09
2022-10-29T09:16:34.030Z,100361.38
2022-10-29T09:22:19.498Z,100385.59
2022-10-29T09:24:56.627Z,100384.84
2022-10-29T09:27:44.653Z,100384.59
2022-10-29T09:33:15.664Z,100373.66
2022-10-29T09:35:47.822Z,100368.47
2022-10-29T09:38:25.571Z,100367.91
2022-10-29T09:40:54.388Z,100369.09
2022-10-29T09:46:37.141Z,100369.16
2022-10-29T09:49:18.790Z,100359.72
2022-10-29T09:51:54.780Z,100360.13
2022-10-29T09:54:27.887Z,100361.47
2022-10-29T09:56:58.601Z,100363.75
2022-10-29T09:59:35.268Z,100363.13
2022-10-29T10:02:26.045Z,100361.38
2022-10-29T10:05:00.509Z,100360.25
2022-10-29T10:10:24.218Z,100339.75
2022-10-29T10:12:54.862Z,100330.75
2022-10-29T10:18:21.848Z,100328.53
2022-10-29T10:21:06.758Z,100324.28
2022-10-29T10:23:45.170Z,100329.00
2022-10-29T10:26:33.505Z,100319.56
2022-10-29T10:29:11.385Z,100321.53
2022-10-29T10:31:40.491Z,100320.22
2022-10-29T10:34:20.212Z,100321.06
2022-10-29T10:36:53.324Z,100333.59
2022-10-29T10:39:30.780Z,100345.06
2022-10-29T10:42:02.780Z,100336.28
2022-10-29T10:44:32.290Z,100341.09
2022-10-29T10:52:44.565Z,100346.00
2022-10-29T10:58:16.246Z,100360.00
2022-10-29T11:00:48.651Z,100345.94
2022-10-29T11:09:00.181Z,100347.56
2022-10-29T11:14:25.070Z,100337.25
2022-10-29T11:17:00.587Z,100327.78
2022-10-29T11:22:28.686Z,100315.13
2022-10-29T11:28:04.620Z,100339.88
2022-10-29T11:30:39.945Z,100333.03
2022-10-29T11:33:18.858Z,100324.72
2022-10-29T11:35:54.960Z,100341.13
2022-10-29T11:41:33.621Z,100348.19
2022-10-29T11:44:09.436Z,100353.16
2022-10-29T11:46:53.623Z,100360.19
2022-10-29T11:49:38.283Z,100362.31
2022-10-29T11:52:11.679Z,100363.50
2022-10-29T11:55:05.501Z,100361.06
2022-10-29T11:57:41.465Z,100356.00
2022-10-29T12:00:15.639Z,100368.31
2022-10-29T12:12:27.934Z,100340.34
2022-10-29T12:15:06.286Z,100327.03
2022-10-29T12:17:44.015Z,100319.16
2022-10-29T12:20:22.074Z,100334.63
2022-10-29T12:23:02.700Z,100331.03
2022-10-29T12:25:45.122Z,100323.22
2022-10-29T12:28:23.457Z,100330.84
2022-10-29T12:34:08.259Z,100330.31
2022-10-29T12:39:38.872Z,100329.75
2022-10-29T12:42:17.815Z,100338.06
2022-10-29T12:45:00.718Z,100337.84
2022-10-29T12:47:38.068Z,100329.41
2022-10-29T12:53:19.931Z,100317.78
2022-10-29T12:58:50.171Z,100320.41
2022-10-29T13:02:10.566Z,100317.28
2022-10-29T13:04:38.090Z,100329.66
2022-10-29T13:07:27.180Z,100326.00
2022-10-29T13:13:25.350Z,100333.75
2022-10-29T13:16:02.410Z,100337.88
2022-10-29T13:18:48.658Z,100337.88
2022-10-29T13:21:58.064Z,100353.75
2022-10-29T13:27:36.725Z,100347.81
2022-10-29T13:30:25.653Z,100357.75
2022-10-29T13:35:43.661Z,100357.00
2022-10-29T13:41:19.908Z,100343.06
2022-10-29T13:43:56.402Z,100334.09
2022-10-29T13:46:48.379Z,100344.59
2022-10-29T13:52:18.198Z,100321.53
2022-10-29T13:54:51.899Z,100333.63
2022-10-29T13:57:27.685Z,100338.25
2022-10-29T14:02:56.330Z,100334.09
2022-10-29T14:05:34.590Z,100334.53
2022-10-29T14:11:04.682Z,100333.53
2022-10-29T14:13:37.555Z,100326.97
2022-10-29T14:16:12.355Z,100320.66
2022-10-29T14:18:43.027Z,100326.31
2022-10-29T14:24:06.781Z,100340.97
2022-10-29T14:26:41.091Z,100332.47
2022-10-29T14:32:15.739Z,100339.72
2022-10-29T14:34:48.498Z,100340.88
2022-10-29T14:37:25.783Z,100344.97
2022-10-29T14:40:01.321Z,100342.97
2022-10-29T14:45:31.589Z,100333.09
2022-10-29T14:48:05.520Z,100335.13
2022-10-29T14:50:37.585Z,100341.50
2022-10-29T14:53:25.343Z,100337.69
2022-10-29T14:55:57.747Z,100339.81
2022-10-29T15:01:20.718Z,100350.66
2022-10-29T15:03:57.611Z,100354.81
2022-10-29T15:09:30.387Z,100337.47
2022-10-29T15:12:09.659Z,100343.19
2022-10-29T15:14:49.541Z,100340.41
2022-10-29T15:17:24.122Z,100342.84
2022-10-29T15:19:59.637Z,100341.66
2022-10-29T15:22:36.277Z,100342.06
2022-10-29T15:25:09.582Z,100338.25
2022-10-29T15:27:43.077Z,100337.88
2022-10-29T15:33:08.577Z,100331.25
2022-10-29T15:35:45.091Z,100342.25
2022-10-29T15:38:53.661Z,100340.19
2022-10-29T15:41:35.290Z,100334.41
2022-10-29T15:44:25.771Z,100335.88
2022-10-29T15:49:45.848Z,100348.91
2022-10-29T15:52:19.142Z,100346.50
2022-10-29T15:54:51.490Z,100345.06
2022-10-29T15:57:20.577Z,100339.50
2022-10-29T15:59:55.666Z,100339.91
2022-10-29T16:02:27.306Z,100350.47
2022-10-29T16:04:59.164Z,100351.44
2022-10-29T16:07:30.249Z,100354.06
2022-10-29T16:10:03.140Z,100352.16
2022-10-29T16:15:22.560Z,100349.13
2022-10-29T16:17:52.531Z,100348.22
2022-10-29T16:20:21.509Z,100342.06
2022-10-29T16:22:53.178Z,100345.84
2022-10-29T16:25:25.108Z,100352.94
2022-10-29T16:30:41.897Z,100352.75
2022-10-29T16:36:00.055Z,100360.13
2022-10-29T16:41:16.552Z,100363.06
2022-10-29T16:46:36.643Z,100367.88
2022-10-29T16:49:10.183Z,100361.72
2022-10-29T16:54:29.191Z,100360.13
2022-10-29T16:56:58.173Z,100366.53
2022-10-29T16:59:27.603Z,100357.84
2022-10-29T17:01:57.842Z,100356.50
2022-10-29T17:04:27.046Z,100369.53
2022-10-29T17:06:59.270Z,100371.69
2022-10-29T17:09:31.003Z,100373.81
2022-10-29T17:12:01.476Z,100369.16
2022-10-29T17:14:30.431Z,100376.44
2022-10-29T17:17:02.717Z,100383.50
2022-10-29T17:22:18.157Z,100378.69
2022-10-29T17:27:33.002Z,100379.00
2022-10-29T17:30:02.986Z,100375.19
2022-10-29T17:32:38.985Z,100376.28
2022-10-29T17:35:08.508Z,100374.94
2022-10-29T17:37:37.402Z,100367.38
2022-10-29T17:40:10.134Z,100361.50
2022-10-29T17:45:25.473Z,100372.81
2022-10-29T17:50:43.825Z,100359.69
2022-10-29T17:53:12.636Z,100375.66
2022-10-29T17:55:41.411Z,100372.31
2022-10-29T18:01:06.934Z,100386.72
2022-10-29T18:03:42.075Z,100375.53
2022-10-29T18:09:01.690Z,100380.16
2022-10-29T18:11:31.087Z,100388.34
2022-10-29T18:14:01.577Z,100382.63
2022-10-29T18:16:33.914Z,100386.94
2022-10-29T18:19:04.292Z,100381.13
2022-10-29T18:21:33.576Z,100387.25
2022-10-29T18:24:02.705Z,100387.13
2022-10-29T18:26:34.166Z,100381.88
2022-10-29T18:29:04.565Z,100386.13
2022-10-29T18:31:33.426Z,100387.75
2022-10-29T18:36:53.102Z,100379.97
2022-10-29T18:39:22.000Z,100378.09
2022-10-29T18:41:50.883Z,100376.59
2022-10-29T18:44:19.904Z,100379.44
2022-10-29T18:46:48.767Z,100378.56
2022-10-29T18:49:20.398Z,100382.81
2022-10-29T18:51:49.374Z,100383.69
2022-10-29T18:54:20.046Z,100388.03
2022-10-29T18:56:48.841Z,100381.75
2022-10-29T18:59:17.860Z,100377.41
2022-10-29T19:01:47.018Z,100385.25
2022-10-29T19:07:05.789Z,100383.22
2022-10-29T19:09:34.389Z,100391.88
2022-10-29T19:12:03.099Z,100389.16
2022-10-29T19:14:31.814Z,100385.78
2022-10-29T19:17:01.110Z,100387.38
2022-10-29T19:19:30.055Z,100395.97
2022-10-29T19:21:58.801Z,100393.25
2022-10-29T19:24:29.572Z,100395.03
2022-10-29T19:26:58.631Z,100390.53
2022-10-29T19:29:27.499Z,100392.91
2022-10-29T19:31:57.591Z,100396.16
2022-10-29T19:34:26.833Z,100387.19
2022-10-29T19:36:55.857Z,100391.50
2022-10-29T19:39:24.994Z,100401.03
2022-10-29T19:41:55.136Z,100407.91
2022-10-29T19:44:24.267Z,100399.06
2022-10-29T19:46:52.788Z,100393.78
2022-10-29T19:49:22.469Z,100400.81
2022-10-29T19:51:51.484Z,100407.72
2022-10-29T19:54:20.462Z,100405.00
2022-10-29T19:56:49.182Z,100407.72
2022-10-29T19:59:19.571Z,100402.81
2022-10-29T20:01:48.831Z,100409.09
2022-10-29T20:04:17.627Z,100408.44
2022-10-29T20:06:46.444Z,100410.38
2022-10-29T20:09:15.143Z,100413.13
2022-10-29T20:11:43.950Z,100427.41
2022-10-29T20:14:12.664Z,100413.63
2022-10-29T20:16:43.255Z,100427.66
2022-10-29T20:19:12.712Z,100432.19
2022-10-29T20:21:41.759Z,100420.09
2022-10-29T20:24:10.945Z,100427.13
2022-10-29T20:26:40.257Z,100433.34
2022-10-29T20:29:09.132Z,100429.25
2022-10-29T20:34:28.153Z,100430.31
2022-10-29T20:36:56.919Z,100433.91
2022-10-29T20:39:30.775Z,100432.28
2022-10-29T20:42:02.725Z,100430.59
2022-10-29T20:44:31.318Z,100429.03
2022-10-29T20:47:00.040Z,100437.91
2022-10-29T20:49:30.217Z,100438.75
2022-10-29T20:52:03.621Z,100432.69
2022-10-29T20:54:32.448Z,100430.13
2022-10-29T20:57:01.975Z,100432.78
2022-10-29T20:59:30.969Z,100432.69
2022-10-29T21:02:00.340Z,100427.75
2022-10-29T21:04:31.285Z,100440.00
2022-10-29T21:15:20.581Z,100401.53
2022-10-29T21:17:49.499Z,100400.59
2022-10-29T21:23:06.900Z,100387.66
2022-10-29T21:25:35.555Z,100383.13
2022-10-29T21:28:04.605Z,100388.75
2022-10-29T21:30:33.389Z,100383.72
2022-10-29T21:33:02.076Z,100383.97
2022-10-29T21:38:18.083Z,100397.25
2022-10-29T21:40:47.135Z,100389.25
2022-10-29T21:43:16.849Z,100399.94
2022-10-29T21:45:46.799Z,100401.03
2022-10-29T21:48:16.070Z,100403.19
2022-10-29T21:50:46.612Z,100390.38
2022-10-29T21:58:31.917Z,100397.38
2022-10-29T22:01:06.780Z,100395.06
2022-10-29T22:03:36.558Z,100397.53
2022-10-29T22:06:09.091Z,100395.06
2022-10-29T22:08:37.829Z,100392.81
2022-10-29T22:11:07.130Z,100394.63
2022-10-29T22:13:36.857Z,100392.31
2022-10-29T22:16:06.500Z,100382.13
2022-10-29T22:18:36.036Z,100373.38
2022-10-29T22:21:09.075Z,100365.41
2022-10-29T22:23:39.093Z,100362.84
2022-10-29T22:26:09.107Z,100363.69
2022-10-29T22:28:37.938Z,100368.25
2022-10-29T22:31:07.213Z,100378.81
2022-10-29T22:33:36.486Z,100379.66
2022-10-29T22:36:09.510Z,100385.16
2022-10-29T22:38:39.246Z,100382.50
2022-10-29T22:41:09.505Z,100389.34
2022-10-29T22:46:27.145Z,100383.59
2022-10-29T22:48:56.950Z,100389.41
2022-10-29T22:54:15.493Z,100380.28
2022-10-29T22:56:44.559Z,100375.69
2022-10-29T22:59:13.670Z,100370.41
2022-10-29T23:01:45.501Z,100372.13
2022-10-29T23:04:15.873Z,100376.44
2022-10-29T23:06:47.959Z,100373.06
2022-10-29T23:09:17.209Z,100381.97
2022-10-29T23:11:46.012Z,100379.75
2022-10-29T23:14:14.713Z,100371.22
2022-10-29T23:16:43.754Z,100364.28
2022-10-29T23:19:12.929Z,100364.56
2022-10-29T23:21:42.861Z,100355.88
2022-10-29T23:24:13.088Z,100341.91
2022-10-29T23:26:42.372Z,100356.03
2022-10-29T23:34:43.488Z,100371.31
2022-10-29T23:37:12.319Z,100365.22
2022-10-29T23:39:43.288Z,100358.81
2022-10-29T23:42:12.031Z,100365.03
2022-10-29T23:47:27.560Z,100357.25
2022-10-29T23:52:42.481Z,100362.03
2022-10-29T23:55:12.743Z,100359.41
2022-10-29T23:57:41.491Z,100350.50
